sensor_id;sensor_type;location;lat;lon;timestamp;P1;durP1;ratioP1;P2;durP2;ratioP2
18544;SDS011;9402;51.460;7.276;2023-08-20T00:01:15;12.67;;;9.60;;
18544;SDS011;9402;51.460;7.276;2023-08-20T00:03:22;12.77;;;8.00;;
18544;SDS011;9402;51.460;7.276;2023-08-20T00:05:24;9.40;;;6.57;;
18544;SDS011;9402;51.460;7.276;2023-08-20T00:07:26;9.70;;;6.60;;
18544;SDS011;9402;51.460;7.276;2023-08-20T00:09:28;16.80;;;8.20;;
18544;SDS011;9402;51.460;7.276;2023-08-20T00:11:30;10.97;;;6.83;;
18544;SDS011;9402;51.460;7.276;2023-08-20T00:13:33;10.87;;;8.60;;
18544;SDS011;9402;51.460;7.276;2023-08-20T00:15:35;9.20;;;7.53;;
18544;SDS011;9402;51.460;7.276;2023-08-20T00:17:37;9.10;;;7.57;;
18544;SDS011;9402;51.460;7.276;2023-08-20T00:19:41;7.57;;;6.67;;
18544;SDS011;9402;51.460;7.276;2023-08-20T00:21:43;6.60;;;5.23;;
18544;SDS011;9402;51.460;7.276;2023-08-20T00:23:45;6.17;;;5.67;;
18544;SDS011;9402;51.460;7.276;2023-08-20T00:25:47;5.67;;;5.17;;
18544;SDS011;9402;51.460;7.276;2023-08-20T00:27:49;5.33;;;4.07;;
18544;SDS011;9402;51.460;7.276;2023-08-20T00:29:52;5.63;;;4.97;;
18544;SDS011;9402;51.460;7.276;2023-08-20T00:31:54;9.63;;;6.13;;
18544;SDS011;9402;51.460;7.276;2023-08-20T00:33:55;9.77;;;5.00;;
18544;SDS011;9402;51.460;7.276;2023-08-20T00:35:57;6.23;;;5.73;;
18544;SDS011;9402;51.460;7.276;2023-08-20T00:37:59;10.33;;;6.37;;
18544;SDS011;9402;51.460;7.276;2023-08-20T00:40:00;12.37;;;6.80;;
18544;SDS011;9402;51.460;7.276;2023-08-20T00:42:04;10.17;;;6.67;;
18544;SDS011;9402;51.460;7.276;2023-08-20T00:44:07;14.77;;;8.23;;
18544;SDS011;9402;51.460;7.276;2023-08-20T00:46:10;10.20;;;7.20;;
18544;SDS011;9402;51.460;7.276;2023-08-20T00:48:12;12.80;;;8.10;;
18544;SDS011;9402;51.460;7.276;2023-08-20T00:50:14;10.20;;;7.67;;
18544;SDS011;9402;51.460;7.276;2023-08-20T00:52:16;10.53;;;8.70;;
18544;SDS011;9402;51.460;7.276;2023-08-20T00:54:18;16.83;;;8.17;;
18544;SDS011;9402;51.460;7.276;2023-08-20T00:56:19;17.17;;;9.00;;
18544;SDS011;9402;51.460;7.276;2023-08-20T00:58:21;16.50;;;8.10;;
18544;SDS011;9402;51.460;7.276;2023-08-20T01:00:23;10.37;;;8.13;;
18544;SDS011;9402;51.460;7.276;2023-08-20T01:02:26;11.90;;;9.73;;
18544;SDS011;9402;51.460;7.276;2023-08-20T01:04:27;14.73;;;9.83;;
18544;SDS011;9402;51.460;7.276;2023-08-20T01:06:32;13.50;;;8.53;;
18544;SDS011;9402;51.460;7.276;2023-08-20T01:08:38;11.80;;;7.43;;
18544;SDS011;9402;51.460;7.276;2023-08-20T01:10:42;13.50;;;7.43;;
18544;SDS011;9402;51.460;7.276;2023-08-20T01:12:51;13.83;;;8.90;;
18544;SDS011;9402;51.460;7.276;2023-08-20T01:14:53;8.67;;;7.00;;
18544;SDS011;9402;51.460;7.276;2023-08-20T01:16:55;15.97;;;7.50;;
18544;SDS011;9402;51.460;7.276;2023-08-20T01:18:57;13.43;;;7.10;;
18544;SDS011;9402;51.460;7.276;2023-08-20T01:21:01;9.67;;;7.23;;
18544;SDS011;9402;51.460;7.276;2023-08-20T01:23:10;8.43;;;7.53;;
18544;SDS011;9402;51.460;7.276;2023-08-20T01:25:24;13.57;;;8.70;;
18544;SDS011;9402;51.460;7.276;2023-08-20T01:27:38;14.23;;;8.30;;
18544;SDS011;9402;51.460;7.276;2023-08-20T01:29:46;17.53;;;9.03;;
18544;SDS011;9402;51.460;7.276;2023-08-20T01:31:48;13.37;;;8.23;;
18544;SDS011;9402;51.460;7.276;2023-08-20T01:33:49;13.00;;;8.83;;
18544;SDS011;9402;51.460;7.276;2023-08-20T01:35:51;14.53;;;9.83;;
18544;SDS011;9402;51.460;7.276;2023-08-20T01:37:53;9.00;;;7.23;;
18544;SDS011;9402;51.460;7.276;2023-08-20T01:39:55;12.97;;;9.77;;
18544;SDS011;9402;51.460;7.276;2023-08-20T01:41:57;9.37;;;8.30;;
18544;SDS011;9402;51.460;7.276;2023-08-20T01:43:58;17.30;;;9.10;;
18544;SDS011;9402;51.460;7.276;2023-08-20T01:46:02;21.90;;;9.37;;
18544;SDS011;9402;51.460;7.276;2023-08-20T01:48:04;14.73;;;9.77;;
18544;SDS011;9402;51.460;7.276;2023-08-20T01:50:06;14.40;;;8.97;;
18544;SDS011;9402;51.460;7.276;2023-08-20T01:52:08;21.03;;;9.43;;
18544;SDS011;9402;51.460;7.276;2023-08-20T01:54:10;13.70;;;9.50;;
18544;SDS011;9402;51.460;7.276;2023-08-20T01:56:11;11.13;;;7.93;;
18544;SDS011;9402;51.460;7.276;2023-08-20T01:58:13;14.03;;;9.23;;
18544;SDS011;9402;51.460;7.276;2023-08-20T02:00:15;14.20;;;11.07;;
18544;SDS011;9402;51.460;7.276;2023-08-20T02:02:18;9.83;;;7.40;;
18544;SDS011;9402;51.460;7.276;2023-08-20T02:04:20;9.70;;;7.10;;
18544;SDS011;9402;51.460;7.276;2023-08-20T02:06:22;8.17;;;6.83;;
18544;SDS011;9402;51.460;7.276;2023-08-20T02:08:23;7.00;;;6.30;;
18544;SDS011;9402;51.460;7.276;2023-08-20T02:10:25;8.60;;;7.80;;
18544;SDS011;9402;51.460;7.276;2023-08-20T02:12:26;9.87;;;8.40;;
18544;SDS011;9402;51.460;7.276;2023-08-20T02:14:28;12.20;;;7.57;;
18544;SDS011;9402;51.460;7.276;2023-08-20T02:16:33;16.63;;;8.50;;
18544;SDS011;9402;51.460;7.276;2023-08-20T02:18:36;16.17;;;10.33;;
18544;SDS011;9402;51.460;7.276;2023-08-20T02:20:38;9.10;;;8.07;;
18544;SDS011;9402;51.460;7.276;2023-08-20T02:22:40;21.03;;;11.23;;
18544;SDS011;9402;51.460;7.276;2023-08-20T02:24:41;12.87;;;9.27;;
18544;SDS011;9402;51.460;7.276;2023-08-20T02:26:43;13.23;;;8.50;;
18544;SDS011;9402;51.460;7.276;2023-08-20T02:28:44;15.40;;;9.80;;
18544;SDS011;9402;51.460;7.276;2023-08-20T02:30:46;13.33;;;9.80;;
18544;SDS011;9402;51.460;7.276;2023-08-20T02:32:48;19.63;;;10.63;;
18544;SDS011;9402;51.460;7.276;2023-08-20T02:34:51;14.30;;;10.93;;
18544;SDS011;9402;51.460;7.276;2023-08-20T02:36:53;20.73;;;12.30;;
18544;SDS011;9402;51.460;7.276;2023-08-20T02:38:55;15.43;;;12.10;;
18544;SDS011;9402;51.460;7.276;2023-08-20T02:40:56;18.20;;;13.33;;
18544;SDS011;9402;51.460;7.276;2023-08-20T02:42:58;24.90;;;15.70;;
18544;SDS011;9402;51.460;7.276;2023-08-20T02:44:59;21.10;;;14.33;;
18544;SDS011;9402;51.460;7.276;2023-08-20T02:47:01;22.60;;;13.70;;
18544;SDS011;9402;51.460;7.276;2023-08-20T02:49:03;19.13;;;15.00;;
18544;SDS011;9402;51.460;7.276;2023-08-20T02:51:05;35.17;;;16.10;;
18544;SDS011;9402;51.460;7.276;2023-08-20T02:53:06;22.67;;;15.50;;
18544;SDS011;9402;51.460;7.276;2023-08-20T02:55:08;19.77;;;14.00;;
18544;SDS011;9402;51.460;7.276;2023-08-20T02:57:10;25.47;;;16.30;;
18544;SDS011;9402;51.460;7.276;2023-08-20T02:59:11;30.17;;;16.17;;
18544;SDS011;9402;51.460;7.276;2023-08-20T03:01:22;31.00;;;17.43;;
18544;SDS011;9402;51.460;7.276;2023-08-20T03:03:24;17.77;;;12.40;;
18544;SDS011;9402;51.460;7.276;2023-08-20T03:05:26;12.73;;;8.50;;
18544;SDS011;9402;51.460;7.276;2023-08-20T03:07:29;14.57;;;7.57;;
18544;SDS011;9402;51.460;7.276;2023-08-20T03:09:31;10.70;;;7.53;;
18544;SDS011;9402;51.460;7.276;2023-08-20T03:11:32;18.80;;;9.00;;
18544;SDS011;9402;51.460;7.276;2023-08-20T03:13:34;11.97;;;8.47;;
18544;SDS011;9402;51.460;7.276;2023-08-20T03:15:34;16.60;;;9.83;;
18544;SDS011;9402;51.460;7.276;2023-08-20T03:17:36;12.60;;;9.40;;
18544;SDS011;9402;51.460;7.276;2023-08-20T03:19:46;15.50;;;9.87;;
18544;SDS011;9402;51.460;7.276;2023-08-20T03:21:54;18.60;;;10.83;;
18544;SDS011;9402;51.460;7.276;2023-08-20T03:23:57;21.50;;;11.40;;
18544;SDS011;9402;51.460;7.276;2023-08-20T03:25:59;19.10;;;13.40;;
18544;SDS011;9402;51.460;7.276;2023-08-20T03:28:01;21.17;;;13.50;;
18544;SDS011;9402;51.460;7.276;2023-08-20T03:30:02;18.63;;;12.77;;
18544;SDS011;9402;51.460;7.276;2023-08-20T03:32:04;30.60;;;14.97;;
18544;SDS011;9402;51.460;7.276;2023-08-20T03:34:06;28.10;;;14.23;;
18544;SDS011;9402;51.460;7.276;2023-08-20T03:36:09;25.67;;;14.20;;
18544;SDS011;9402;51.460;7.276;2023-08-20T03:38:11;20.63;;;15.57;;
18544;SDS011;9402;51.460;7.276;2023-08-20T03:40:13;19.03;;;14.17;;
18544;SDS011;9402;51.460;7.276;2023-08-20T03:42:15;23.97;;;13.50;;
18544;SDS011;9402;51.460;7.276;2023-08-20T03:44:17;17.63;;;13.63;;
18544;SDS011;9402;51.460;7.276;2023-08-20T03:46:18;23.07;;;13.83;;
18544;SDS011;9402;51.460;7.276;2023-08-20T03:48:20;23.30;;;13.00;;
18544;SDS011;9402;51.460;7.276;2023-08-20T03:50:21;16.40;;;12.40;;
18544;SDS011;9402;51.460;7.276;2023-08-20T03:52:23;18.50;;;13.43;;
18544;SDS011;9402;51.460;7.276;2023-08-20T03:54:25;26.77;;;14.73;;
18544;SDS011;9402;51.460;7.276;2023-08-20T03:56:28;25.33;;;14.13;;
18544;SDS011;9402;51.460;7.276;2023-08-20T03:58:29;22.80;;;15.23;;
18544;SDS011;9402;51.460;7.276;2023-08-20T04:00:31;18.83;;;14.50;;
18544;SDS011;9402;51.460;7.276;2023-08-20T04:02:32;23.70;;;14.83;;
18544;SDS011;9402;51.460;7.276;2023-08-20T04:04:35;26.20;;;16.03;;
18544;SDS011;9402;51.460;7.276;2023-08-20T04:06:37;23.33;;;15.03;;
18544;SDS011;9402;51.460;7.276;2023-08-20T04:08:39;26.73;;;16.00;;
18544;SDS011;9402;51.460;7.276;2023-08-20T04:10:43;16.43;;;10.20;;
18544;SDS011;9402;51.460;7.276;2023-08-20T04:12:47;15.00;;;9.50;;
18544;SDS011;9402;51.460;7.276;2023-08-20T04:14:48;19.53;;;11.60;;
18544;SDS011;9402;51.460;7.276;2023-08-20T04:16:49;22.67;;;13.63;;
18544;SDS011;9402;51.460;7.276;2023-08-20T04:18:50;19.97;;;13.33;;
18544;SDS011;9402;51.460;7.276;2023-08-20T04:20:52;22.03;;;14.33;;
18544;SDS011;9402;51.460;7.276;2023-08-20T04:22:55;40.70;;;17.23;;
18544;SDS011;9402;51.460;7.276;2023-08-20T04:24:56;36.77;;;19.33;;
18544;SDS011;9402;51.460;7.276;2023-08-20T04:26:57;31.53;;;17.90;;
18544;SDS011;9402;51.460;7.276;2023-08-20T04:29:00;14.27;;;10.90;;
18544;SDS011;9402;51.460;7.276;2023-08-20T04:31:02;14.87;;;10.13;;
18544;SDS011;9402;51.460;7.276;2023-08-20T04:33:04;24.20;;;16.33;;
18544;SDS011;9402;51.460;7.276;2023-08-20T04:35:06;36.70;;;20.60;;
18544;SDS011;9402;51.460;7.276;2023-08-20T04:37:08;60.97;;;28.80;;
18544;SDS011;9402;51.460;7.276;2023-08-20T04:39:10;109.77;;;43.87;;
18544;SDS011;9402;51.460;7.276;2023-08-20T04:41:11;77.00;;;35.40;;
18544;SDS011;9402;51.460;7.276;2023-08-20T04:43:13;104.07;;;43.10;;
18544;SDS011;9402;51.460;7.276;2023-08-20T04:45:15;86.43;;;38.70;;
18544;SDS011;9402;51.460;7.276;2023-08-20T04:47:19;79.37;;;38.17;;
18544;SDS011;9402;51.460;7.276;2023-08-20T04:49:21;64.40;;;35.80;;
18544;SDS011;9402;51.460;7.276;2023-08-20T04:51:22;68.77;;;38.23;;
18544;SDS011;9402;51.460;7.276;2023-08-20T04:53:24;73.30;;;35.30;;
18544;SDS011;9402;51.460;7.276;2023-08-20T04:55:25;78.57;;;37.93;;
18544;SDS011;9402;51.460;7.276;2023-08-20T04:57:27;98.40;;;42.63;;
18544;SDS011;9402;51.460;7.276;2023-08-20T04:59:28;106.07;;;46.33;;
18544;SDS011;9402;51.460;7.276;2023-08-20T05:01:31;88.30;;;42.47;;
18544;SDS011;9402;51.460;7.276;2023-08-20T05:03:32;72.90;;;38.37;;
18544;SDS011;9402;51.460;7.276;2023-08-20T05:05:33;98.90;;;48.40;;
18544;SDS011;9402;51.460;7.276;2023-08-20T05:07:35;69.93;;;38.83;;
18544;SDS011;9402;51.460;7.276;2023-08-20T05:09:36;69.27;;;39.73;;
18544;SDS011;9402;51.460;7.276;2023-08-20T05:11:38;71.50;;;40.60;;
18544;SDS011;9402;51.460;7.276;2023-08-20T05:13:39;67.40;;;39.50;;
18544;SDS011;9402;51.460;7.276;2023-08-20T05:15:41;73.40;;;43.90;;
18544;SDS011;9402;51.460;7.276;2023-08-20T05:17:43;69.53;;;39.80;;
18544;SDS011;9402;51.460;7.276;2023-08-20T05:19:44;67.80;;;39.10;;
18544;SDS011;9402;51.460;7.276;2023-08-20T05:21:46;46.03;;;30.77;;
18544;SDS011;9402;51.460;7.276;2023-08-20T05:23:48;56.07;;;34.57;;
18544;SDS011;9402;51.460;7.276;2023-08-20T05:25:50;49.70;;;30.60;;
18544;SDS011;9402;51.460;7.276;2023-08-20T05:27:51;47.23;;;30.50;;
18544;SDS011;9402;51.460;7.276;2023-08-20T05:29:53;55.40;;;31.53;;
18544;SDS011;9402;51.460;7.276;2023-08-20T05:31:55;71.00;;;36.93;;
18544;SDS011;9402;51.460;7.276;2023-08-20T05:33:58;87.57;;;39.70;;
18544;SDS011;9402;51.460;7.276;2023-08-20T05:35:59;78.30;;;37.53;;
18544;SDS011;9402;51.460;7.276;2023-08-20T05:38:01;63.00;;;34.97;;
18544;SDS011;9402;51.460;7.276;2023-08-20T05:40:02;73.20;;;34.80;;
18544;SDS011;9402;51.460;7.276;2023-08-20T05:42:04;68.47;;;35.17;;
18544;SDS011;9402;51.460;7.276;2023-08-20T05:44:05;57.07;;;34.03;;
18544;SDS011;9402;51.460;7.276;2023-08-20T05:46:07;72.73;;;37.10;;
18544;SDS011;9402;51.460;7.276;2023-08-20T05:48:08;58.40;;;33.20;;
18544;SDS011;9402;51.460;7.276;2023-08-20T05:50:11;77.40;;;38.20;;
18544;SDS011;9402;51.460;7.276;2023-08-20T05:52:13;95.47;;;40.33;;
18544;SDS011;9402;51.460;7.276;2023-08-20T05:54:14;92.23;;;40.60;;
18544;SDS011;9402;51.460;7.276;2023-08-20T05:56:16;112.70;;;44.40;;
18544;SDS011;9402;51.460;7.276;2023-08-20T05:58:18;79.40;;;37.53;;
18544;SDS011;9402;51.460;7.276;2023-08-20T06:00:19;94.20;;;36.97;;
18544;SDS011;9402;51.460;7.276;2023-08-20T06:02:21;85.83;;;38.47;;
18544;SDS011;9402;51.460;7.276;2023-08-20T06:04:23;70.10;;;35.27;;
18544;SDS011;9402;51.460;7.276;2023-08-20T06:06:26;63.73;;;33.27;;
18544;SDS011;9402;51.460;7.276;2023-08-20T06:08:27;66.10;;;33.10;;
18544;SDS011;9402;51.460;7.276;2023-08-20T06:10:29;51.20;;;29.53;;
18544;SDS011;9402;51.460;7.276;2023-08-20T06:12:30;40.47;;;26.10;;
18544;SDS011;9402;51.460;7.276;2023-08-20T06:14:32;42.60;;;25.03;;
18544;SDS011;9402;51.460;7.276;2023-08-20T06:16:34;42.20;;;25.50;;
18544;SDS011;9402;51.460;7.276;2023-08-20T06:18:34;38.70;;;25.10;;
18544;SDS011;9402;51.460;7.276;2023-08-20T06:20:37;42.20;;;26.60;;
18544;SDS011;9402;51.460;7.276;2023-08-20T06:22:39;50.10;;;29.50;;
18544;SDS011;9402;51.460;7.276;2023-08-20T06:24:41;44.73;;;27.40;;
18544;SDS011;9402;51.460;7.276;2023-08-20T06:26:43;52.80;;;30.90;;
18544;SDS011;9402;51.460;7.276;2023-08-20T06:28:45;54.10;;;30.93;;
18544;SDS011;9402;51.460;7.276;2023-08-20T06:30:46;39.37;;;27.30;;
18544;SDS011;9402;51.460;7.276;2023-08-20T06:32:48;48.00;;;30.77;;
18544;SDS011;9402;51.460;7.276;2023-08-20T06:34:49;54.50;;;33.30;;
18544;SDS011;9402;51.460;7.276;2023-08-20T06:36:50;43.00;;;28.53;;
18544;SDS011;9402;51.460;7.276;2023-08-20T06:38:53;34.00;;;25.00;;
18544;SDS011;9402;51.460;7.276;2023-08-20T06:40:55;47.73;;;27.90;;
18544;SDS011;9402;51.460;7.276;2023-08-20T06:42:57;38.23;;;25.90;;
18544;SDS011;9402;51.460;7.276;2023-08-20T06:44:58;49.77;;;29.17;;
18544;SDS011;9402;51.460;7.276;2023-08-20T06:47:00;41.73;;;27.27;;
18544;SDS011;9402;51.460;7.276;2023-08-20T06:49:02;46.07;;;27.50;;
18544;SDS011;9402;51.460;7.276;2023-08-20T06:51:07;51.33;;;30.30;;
18544;SDS011;9402;51.460;7.276;2023-08-20T06:53:10;45.87;;;29.83;;
18544;SDS011;9402;51.460;7.276;2023-08-20T06:55:13;54.40;;;29.87;;
18544;SDS011;9402;51.460;7.276;2023-08-20T06:57:14;44.47;;;28.87;;
18544;SDS011;9402;51.460;7.276;2023-08-20T06:59:16;41.73;;;26.33;;
18544;SDS011;9402;51.460;7.276;2023-08-20T07:01:17;46.53;;;26.60;;
18544;SDS011;9402;51.460;7.276;2023-08-20T07:03:19;46.70;;;27.93;;
18544;SDS011;9402;51.460;7.276;2023-08-20T07:05:20;38.13;;;27.53;;
18544;SDS011;9402;51.460;7.276;2023-08-20T07:07:22;42.50;;;25.93;;
18544;SDS011;9402;51.460;7.276;2023-08-20T07:09:24;55.93;;;29.83;;
18544;SDS011;9402;51.460;7.276;2023-08-20T07:11:27;43.53;;;26.97;;
18544;SDS011;9402;51.460;7.276;2023-08-20T07:13:28;42.03;;;26.00;;
18544;SDS011;9402;51.460;7.276;2023-08-20T07:15:30;40.83;;;26.37;;
18544;SDS011;9402;51.460;7.276;2023-08-20T07:17:32;49.47;;;27.67;;
18544;SDS011;9402;51.460;7.276;2023-08-20T07:19:33;36.77;;;27.00;;
18544;SDS011;9402;51.460;7.276;2023-08-20T07:21:35;39.97;;;26.83;;
18544;SDS011;9402;51.460;7.276;2023-08-20T07:23:36;43.40;;;24.80;;
18544;SDS011;9402;51.460;7.276;2023-08-20T07:25:38;51.43;;;27.23;;
18544;SDS011;9402;51.460;7.276;2023-08-20T07:27:42;38.37;;;23.17;;
18544;SDS011;9402;51.460;7.276;2023-08-20T07:29:44;37.57;;;26.13;;
18544;SDS011;9402;51.460;7.276;2023-08-20T07:31:45;33.13;;;21.40;;
18544;SDS011;9402;51.460;7.276;2023-08-20T07:33:46;33.17;;;23.17;;
18544;SDS011;9402;51.460;7.276;2023-08-20T07:35:48;41.73;;;23.70;;
18544;SDS011;9402;51.460;7.276;2023-08-20T07:37:50;44.23;;;23.37;;
18544;SDS011;9402;51.460;7.276;2023-08-20T07:39:52;30.70;;;21.50;;
18544;SDS011;9402;51.460;7.276;2023-08-20T07:41:53;30.00;;;19.90;;
18544;SDS011;9402;51.460;7.276;2023-08-20T07:43:56;35.90;;;22.10;;
18544;SDS011;9402;51.460;7.276;2023-08-20T07:45:57;37.83;;;20.17;;
18544;SDS011;9402;51.460;7.276;2023-08-20T07:47:58;29.60;;;19.47;;
18544;SDS011;9402;51.460;7.276;2023-08-20T07:50:00;31.63;;;21.03;;
18544;SDS011;9402;51.460;7.276;2023-08-20T07:52:01;29.33;;;18.70;;
18544;SDS011;9402;51.460;7.276;2023-08-20T07:54:03;37.50;;;21.00;;
18544;SDS011;9402;51.460;7.276;2023-08-20T07:56:05;29.70;;;18.60;;
18544;SDS011;9402;51.460;7.276;2023-08-20T07:58:07;31.30;;;19.80;;
18544;SDS011;9402;51.460;7.276;2023-08-20T08:00:10;32.40;;;19.70;;
18544;SDS011;9402;51.460;7.276;2023-08-20T08:02:13;28.20;;;19.50;;
18544;SDS011;9402;51.460;7.276;2023-08-20T08:04:15;29.90;;;18.83;;
18544;SDS011;9402;51.460;7.276;2023-08-20T08:06:16;33.33;;;19.23;;
18544;SDS011;9402;51.460;7.276;2023-08-20T08:08:18;24.40;;;18.37;;
18544;SDS011;9402;51.460;7.276;2023-08-20T08:10:20;21.17;;;17.60;;
18544;SDS011;9402;51.460;7.276;2023-08-20T08:12:21;31.13;;;19.20;;
18544;SDS011;9402;51.460;7.276;2023-08-20T08:14:23;28.80;;;16.30;;
18544;SDS011;9402;51.460;7.276;2023-08-20T08:16:26;28.93;;;18.87;;
18544;SDS011;9402;51.460;7.276;2023-08-20T08:18:28;27.33;;;19.90;;
18544;SDS011;9402;51.460;7.276;2023-08-20T08:20:29;27.67;;;20.00;;
18544;SDS011;9402;51.460;7.276;2023-08-20T08:22:31;29.00;;;18.63;;
18544;SDS011;9402;51.460;7.276;2023-08-20T08:24:33;26.17;;;17.00;;
18544;SDS011;9402;51.460;7.276;2023-08-20T08:26:34;23.20;;;17.37;;
18544;SDS011;9402;51.460;7.276;2023-08-20T08:28:37;21.57;;;16.23;;
18544;SDS011;9402;51.460;7.276;2023-08-20T08:30:38;22.43;;;16.90;;
18544;SDS011;9402;51.460;7.276;2023-08-20T08:32:41;22.63;;;15.43;;
18544;SDS011;9402;51.460;7.276;2023-08-20T08:34:43;22.37;;;14.40;;
18544;SDS011;9402;51.460;7.276;2023-08-20T08:36:44;20.50;;;14.30;;
18544;SDS011;9402;51.460;7.276;2023-08-20T08:38:46;20.43;;;13.33;;
18544;SDS011;9402;51.460;7.276;2023-08-20T08:40:47;16.23;;;13.10;;
18544;SDS011;9402;51.460;7.276;2023-08-20T08:42:50;18.77;;;13.20;;
18544;SDS011;9402;51.460;7.276;2023-08-20T08:44:53;22.70;;;14.07;;
18544;SDS011;9402;51.460;7.276;2023-08-20T08:46:55;16.97;;;11.43;;
18544;SDS011;9402;51.460;7.276;2023-08-20T08:48:59;17.00;;;12.50;;
18544;SDS011;9402;51.460;7.276;2023-08-20T08:51:01;12.07;;;10.07;;
18544;SDS011;9402;51.460;7.276;2023-08-20T08:53:03;12.03;;;7.60;;
18544;SDS011;9402;51.460;7.276;2023-08-20T08:55:06;12.20;;;7.97;;
18544;SDS011;9402;51.460;7.276;2023-08-20T08:57:08;10.27;;;8.43;;
18544;SDS011;9402;51.460;7.276;2023-08-20T08:59:10;10.07;;;8.73;;
18544;SDS011;9402;51.460;7.276;2023-08-20T09:01:12;10.00;;;6.83;;
18544;SDS011;9402;51.460;7.276;2023-08-20T09:03:15;12.67;;;7.13;;
18544;SDS011;9402;51.460;7.276;2023-08-20T09:05:18;11.47;;;6.20;;
18544;SDS011;9402;51.460;7.276;2023-08-20T09:07:20;18.80;;;5.67;;
18544;SDS011;9402;51.460;7.276;2023-08-20T09:09:21;13.70;;;5.60;;
18544;SDS011;9402;51.460;7.276;2023-08-20T09:11:28;9.17;;;5.60;;
18544;SDS011;9402;51.460;7.276;2023-08-20T09:13:36;10.10;;;6.37;;
18544;SDS011;9402;51.460;7.276;2023-08-20T09:15:38;8.93;;;5.90;;
18544;SDS011;9402;51.460;7.276;2023-08-20T09:17:40;9.67;;;6.70;;
18544;SDS011;9402;51.460;7.276;2023-08-20T09:19:42;8.23;;;6.43;;
18544;SDS011;9402;51.460;7.276;2023-08-20T09:21:46;10.13;;;7.00;;
18544;SDS011;9402;51.460;7.276;2023-08-20T09:23:47;14.80;;;5.90;;
18544;SDS011;9402;51.460;7.276;2023-08-20T09:25:48;7.60;;;6.10;;
18544;SDS011;9402;51.460;7.276;2023-08-20T09:27:50;12.43;;;7.07;;
18544;SDS011;9402;51.460;7.276;2023-08-20T09:29:55;7.93;;;6.10;;
18544;SDS011;9402;51.460;7.276;2023-08-20T09:32:01;11.80;;;7.37;;
18544;SDS011;9402;51.460;7.276;2023-08-20T09:34:03;13.87;;;6.33;;
18544;SDS011;9402;51.460;7.276;2023-08-20T09:36:05;7.80;;;5.40;;
18544;SDS011;9402;51.460;7.276;2023-08-20T09:38:10;6.30;;;5.47;;
18544;SDS011;9402;51.460;7.276;2023-08-20T09:40:12;8.93;;;6.63;;
18544;SDS011;9402;51.460;7.276;2023-08-20T09:42:14;8.00;;;6.33;;
18544;SDS011;9402;51.460;7.276;2023-08-20T09:44:16;10.13;;;5.87;;
18544;SDS011;9402;51.460;7.276;2023-08-20T09:46:19;6.37;;;5.80;;
18544;SDS011;9402;51.460;7.276;2023-08-20T09:48:22;11.00;;;6.40;;
18544;SDS011;9402;51.460;7.276;2023-08-20T09:50:25;12.00;;;7.87;;
18544;SDS011;9402;51.460;7.276;2023-08-20T09:52:28;7.10;;;6.40;;
18544;SDS011;9402;51.460;7.276;2023-08-20T09:54:36;13.40;;;7.20;;
18544;SDS011;9402;51.460;7.276;2023-08-20T09:56:43;10.60;;;7.03;;
18544;SDS011;9402;51.460;7.276;2023-08-20T09:58:48;8.67;;;7.17;;
18544;SDS011;9402;51.460;7.276;2023-08-20T10:00:51;12.83;;;7.00;;
18544;SDS011;9402;51.460;7.276;2023-08-20T10:02:52;6.43;;;5.80;;
18544;SDS011;9402;51.460;7.276;2023-08-20T10:04:54;7.33;;;6.63;;
18544;SDS011;9402;51.460;7.276;2023-08-20T10:06:56;7.90;;;6.50;;
18544;SDS011;9402;51.460;7.276;2023-08-20T10:08:59;9.67;;;6.70;;
18544;SDS011;9402;51.460;7.276;2023-08-20T10:11:02;7.37;;;6.50;;
18544;SDS011;9402;51.460;7.276;2023-08-20T10:13:03;8.03;;;6.07;;
18544;SDS011;9402;51.460;7.276;2023-08-20T10:15:06;8.50;;;5.90;;
18544;SDS011;9402;51.460;7.276;2023-08-20T10:17:09;8.70;;;5.87;;
18544;SDS011;9402;51.460;7.276;2023-08-20T10:19:11;11.03;;;5.70;;
18544;SDS011;9402;51.460;7.276;2023-08-20T10:21:12;11.90;;;5.90;;
18544;SDS011;9402;51.460;7.276;2023-08-20T10:23:14;7.37;;;5.30;;
18544;SDS011;9402;51.460;7.276;2023-08-20T10:25:22;6.50;;;5.30;;
18544;SDS011;9402;51.460;7.276;2023-08-20T10:27:25;10.40;;;5.73;;
18544;SDS011;9402;51.460;7.276;2023-08-20T10:29:34;6.30;;;5.70;;
18544;SDS011;9402;51.460;7.276;2023-08-20T10:31:36;7.07;;;6.37;;
18544;SDS011;9402;51.460;7.276;2023-08-20T10:33:50;9.53;;;6.30;;
18544;SDS011;9402;51.460;7.276;2023-08-20T10:35:56;8.20;;;6.70;;
18544;SDS011;9402;51.460;7.276;2023-08-20T10:38:01;8.53;;;6.80;;
18544;SDS011;9402;51.460;7.276;2023-08-20T10:40:07;8.60;;;6.63;;
18544;SDS011;9402;51.460;7.276;2023-08-20T10:42:09;9.53;;;6.93;;
18544;SDS011;9402;51.460;7.276;2023-08-20T10:44:24;7.33;;;6.37;;
18544;SDS011;9402;51.460;7.276;2023-08-20T10:46:26;7.60;;;6.13;;
18544;SDS011;9402;51.460;7.276;2023-08-20T10:48:31;7.07;;;6.27;;
18544;SDS011;9402;51.460;7.276;2023-08-20T10:50:34;9.20;;;7.00;;
18544;SDS011;9402;51.460;7.276;2023-08-20T10:52:38;9.47;;;6.87;;
18544;SDS011;9402;51.460;7.276;2023-08-20T10:54:41;9.40;;;6.73;;
18544;SDS011;9402;51.460;7.276;2023-08-20T10:56:43;11.77;;;7.50;;
18544;SDS011;9402;51.460;7.276;2023-08-20T10:58:45;8.23;;;7.40;;
18544;SDS011;9402;51.460;7.276;2023-08-20T11:00:59;7.43;;;6.60;;
18544;SDS011;9402;51.460;7.276;2023-08-20T11:03:14;10.00;;;7.10;;
18544;SDS011;9402;51.460;7.276;2023-08-20T11:05:15;13.07;;;6.63;;
18544;SDS011;9402;51.460;7.276;2023-08-20T11:07:18;9.43;;;6.90;;
18544;SDS011;9402;51.460;7.276;2023-08-20T11:09:20;11.20;;;7.20;;
18544;SDS011;9402;51.460;7.276;2023-08-20T11:11:22;9.97;;;7.17;;
18544;SDS011;9402;51.460;7.276;2023-08-20T11:13:25;7.97;;;6.57;;
18544;SDS011;9402;51.460;7.276;2023-08-20T11:15:26;13.63;;;7.20;;
18544;SDS011;9402;51.460;7.276;2023-08-20T11:17:29;9.33;;;6.30;;
18544;SDS011;9402;51.460;7.276;2023-08-20T11:19:31;7.43;;;6.17;;
18544;SDS011;9402;51.460;7.276;2023-08-20T11:21:33;7.53;;;5.93;;
18544;SDS011;9402;51.460;7.276;2023-08-20T11:23:35;13.77;;;7.53;;
18544;SDS011;9402;51.460;7.276;2023-08-20T11:25:40;11.17;;;7.77;;
18544;SDS011;9402;51.460;7.276;2023-08-20T11:27:42;8.80;;;7.90;;
18544;SDS011;9402;51.460;7.276;2023-08-20T11:29:43;10.17;;;8.53;;
18544;SDS011;9402;51.460;7.276;2023-08-20T11:31:45;9.93;;;8.77;;
18544;SDS011;9402;51.460;7.276;2023-08-20T11:33:48;13.13;;;8.67;;
18544;SDS011;9402;51.460;7.276;2023-08-20T11:35:50;9.60;;;7.67;;
18544;SDS011;9402;51.460;7.276;2023-08-20T11:37:52;11.53;;;8.10;;
18544;SDS011;9402;51.460;7.276;2023-08-20T11:39:54;14.93;;;9.03;;
18544;SDS011;9402;51.460;7.276;2023-08-20T11:41:55;11.10;;;8.23;;
18544;SDS011;9402;51.460;7.276;2023-08-20T11:43:57;11.83;;;9.03;;
18544;SDS011;9402;51.460;7.276;2023-08-20T11:45:58;9.90;;;8.87;;
18544;SDS011;9402;51.460;7.276;2023-08-20T11:48:00;12.47;;;10.50;;
18544;SDS011;9402;51.460;7.276;2023-08-20T11:50:03;15.10;;;10.83;;
18544;SDS011;9402;51.460;7.276;2023-08-20T11:52:04;18.40;;;13.27;;
18544;SDS011;9402;51.460;7.276;2023-08-20T11:54:06;19.53;;;14.90;;
18544;SDS011;9402;51.460;7.276;2023-08-20T11:56:12;19.53;;;14.30;;
18544;SDS011;9402;51.460;7.276;2023-08-20T11:58:14;25.40;;;15.77;;
18544;SDS011;9402;51.460;7.276;2023-08-20T12:00:23;20.20;;;16.00;;
18544;SDS011;9402;51.460;7.276;2023-08-20T12:02:26;22.00;;;18.10;;
18544;SDS011;9402;51.460;7.276;2023-08-20T12:04:28;23.17;;;19.10;;
18544;SDS011;9402;51.460;7.276;2023-08-20T12:06:32;26.57;;;20.13;;
18544;SDS011;9402;51.460;7.276;2023-08-20T12:08:37;22.37;;;18.23;;
18544;SDS011;9402;51.460;7.276;2023-08-20T12:10:41;26.07;;;18.40;;
18544;SDS011;9402;51.460;7.276;2023-08-20T12:12:43;27.13;;;19.33;;
18544;SDS011;9402;51.460;7.276;2023-08-20T12:14:45;22.10;;;18.23;;